createdAt,value
2018-04-19T00:01:19.821Z,17.07
2018-04-19T00:03:47.262Z,17.63
2018-04-19T00:06:14.698Z,18.87
2018-04-19T00:08:42.137Z,18.37
2018-04-19T00:11:09.573Z,16.83
2018-04-19T00:13:37.781Z,17.20
2018-04-19T00:16:05.226Z,16.70
2018-04-19T00:18:32.665Z,15.50
2018-04-19T00:21:00.099Z,18.70
2018-04-19T00:23:27.537Z,19.40
2018-04-19T00:25:54.975Z,19.93
2018-04-19T00:28:23.184Z,18.80
2018-04-19T00:30:50.616Z,23.33
2018-04-19T00:33:18.065Z,20.23
2018-04-19T00:35:45.501Z,22.20
2018-04-19T00:38:12.941Z,14.63
2018-04-19T00:40:40.381Z,22.60
2018-04-19T00:43:08.585Z,23.33
2018-04-19T00:45:36.016Z,18.97
2018-04-19T00:48:03.493Z,21.50
2018-04-19T00:50:30.938Z,22.83
2018-04-19T00:53:09.161Z,17.80
2018-04-19T00:55:37.369Z,19.80
2018-04-19T00:58:04.805Z,29.13
2018-04-19T01:00:32.252Z,17.97
2018-04-19T01:02:59.699Z,21.90
2018-04-19T01:05:27.906Z,17.77
2018-04-19T01:07:55.345Z,19.10
2018-04-19T01:10:22.837Z,19.83
2018-04-19T01:12:50.233Z,22.00
2018-04-19T01:15:18.432Z,21.50
2018-04-19T01:17:46.652Z,24.93
2018-04-19T01:20:14.090Z,17.90
2018-04-19T01:22:41.530Z,19.67
2018-04-19T01:25:09.006Z,19.27
2018-04-19T01:27:37.182Z,19.50
2018-04-19T01:30:04.622Z,20.97
2018-04-19T01:32:32.070Z,20.63
2018-04-19T01:34:59.511Z,15.67
2018-04-19T01:37:27.719Z,21.03
2018-04-19T01:39:55.930Z,18.20
2018-04-19T01:42:23.374Z,18.43
2018-04-19T01:44:50.807Z,22.13
2018-04-19T01:47:18.254Z,20.57
2018-04-19T01:49:46.454Z,22.67
2018-04-19T01:52:14.658Z,22.37
2018-04-19T01:54:42.862Z,21.63
2018-04-19T01:57:10.302Z,21.27
2018-04-19T01:59:37.743Z,18.60
2018-04-19T02:02:05.186Z,22.90
2018-04-19T02:04:33.390Z,20.97
2018-04-19T02:07:01.595Z,22.67
2018-04-19T02:09:29.809Z,24.57
2018-04-19T02:11:57.246Z,19.50
2018-04-19T02:14:24.691Z,20.37
2018-04-19T02:16:52.126Z,20.67
2018-04-19T02:19:20.335Z,21.87
2018-04-19T02:21:48.540Z,23.10
2018-04-19T02:24:15.983Z,35.30
2018-04-19T02:26:43.426Z,19.50
2018-04-19T02:29:10.867Z,21.13
2018-04-19T02:31:39.079Z,19.83
2018-04-19T02:34:07.287Z,23.33
2018-04-19T02:36:34.728Z,21.27
2018-04-19T02:39:02.170Z,28.07
2018-04-19T02:41:29.610Z,22.40
2018-04-19T02:43:57.809Z,25.37
2018-04-19T02:46:26.014Z,25.47
2018-04-19T02:48:53.460Z,17.27
2018-04-19T02:51:20.895Z,22.17
2018-04-19T02:53:48.343Z,19.70
2018-04-19T02:56:16.553Z,24.37
2018-04-19T02:58:44.763Z,26.47
2018-04-19T03:01:12.199Z,22.93
2018-04-19T03:03:39.643Z,22.43
2018-04-19T03:06:07.083Z,20.10
2018-04-19T03:08:35.295Z,21.20
2018-04-19T03:11:02.731Z,17.40
2018-04-19T03:13:30.178Z,19.20
2018-04-19T03:15:57.611Z,21.40
2018-04-19T03:18:25.058Z,24.23
2018-04-19T03:20:52.498Z,21.50
2018-04-19T03:23:20.706Z,20.30
2018-04-19T03:25:48.138Z,28.30
2018-04-19T03:28:15.579Z,31.53
2018-04-19T03:30:43.019Z,22.80
2018-04-19T03:33:11.231Z,18.00
2018-04-19T03:35:39.431Z,25.67
2018-04-19T03:38:07.643Z,27.40
2018-04-19T03:40:35.081Z,28.50
2018-04-19T03:43:02.517Z,22.50
2018-04-19T03:45:29.959Z,22.80
2018-04-19T03:47:58.174Z,25.87
2018-04-19T03:50:26.370Z,23.50
2018-04-19T03:52:53.809Z,33.10
2018-04-19T03:55:21.237Z,26.60
2018-04-19T03:57:48.679Z,23.10
2018-04-19T04:00:16.122Z,23.73
2018-04-19T04:02:43.561Z,21.90
2018-04-19T04:05:11.772Z,24.30
2018-04-19T04:07:39.971Z,24.97
2018-04-19T04:10:08.179Z,23.80
2018-04-19T04:12:35.610Z,23.17
2018-04-19T04:15:03.072Z,26.70
2018-04-19T04:17:42.250Z,26.07
2018-04-19T04:20:21.622Z,28.90
2018-04-19T04:23:01.071Z,30.50
2018-04-19T04:25:28.506Z,26.93
2018-04-19T04:27:55.938Z,24.97
2018-04-19T04:30:23.382Z,31.33
2018-04-19T04:32:50.814Z,28.00
2018-04-19T04:35:18.315Z,31.03
2018-04-19T04:37:45.694Z,25.87
2018-04-19T04:40:13.902Z,32.80
2018-04-19T04:42:41.342Z,24.00
2018-04-19T04:45:08.787Z,26.77
2018-04-19T04:47:36.227Z,24.73
2018-04-19T04:50:04.430Z,28.90
2018-04-19T04:52:32.631Z,37.67
2018-04-19T04:55:00.837Z,28.13
2018-04-19T04:57:28.271Z,32.70
2018-04-19T04:59:55.719Z,28.00
2018-04-19T05:02:23.158Z,29.43
2018-04-19T05:04:51.379Z,32.30
2018-04-19T05:07:18.818Z,27.03
2018-04-19T05:09:46.266Z,23.50
2018-04-19T05:12:13.711Z,36.13
2018-04-19T05:14:41.926Z,25.20
2018-04-19T05:17:09.357Z,21.77
2018-04-19T05:19:36.811Z,35.87
2018-04-19T05:22:04.251Z,30.43
2018-04-19T05:24:32.467Z,26.60
2018-04-19T05:26:59.911Z,26.13
2018-04-19T05:29:27.354Z,23.43
2018-04-19T05:31:54.807Z,33.10
2018-04-19T05:34:22.253Z,27.33
2018-04-19T05:36:49.699Z,30.63
2018-04-19T05:39:17.138Z,23.20
2018-04-19T05:41:45.350Z,29.37
2018-04-19T05:44:12.794Z,34.67
2018-04-19T05:46:40.243Z,29.23
2018-04-19T05:49:07.685Z,43.07
2018-04-19T05:51:35.121Z,27.77
2018-04-19T05:54:02.570Z,32.77
2018-04-19T05:56:30.011Z,25.07
2018-04-19T05:58:58.223Z,29.53
2018-04-19T06:01:25.670Z,24.43
2018-04-19T06:03:53.110Z,28.37
2018-04-19T06:06:20.559Z,28.13
2018-04-19T06:08:48.767Z,27.10
2018-04-19T06:11:16.220Z,26.07
2018-04-19T06:13:43.662Z,24.43
2018-04-19T06:16:11.112Z,25.17
2018-04-19T06:18:38.550Z,25.97
2018-04-19T06:21:05.999Z,28.93
2018-04-19T06:23:33.443Z,50.90
2018-04-19T06:26:01.658Z,28.73
2018-04-19T06:28:29.099Z,32.10
2018-04-19T06:30:56.546Z,27.80
2018-04-19T06:33:23.991Z,27.20
2018-04-19T06:35:51.438Z,30.30
2018-04-19T06:38:18.878Z,31.63
2018-04-19T06:40:46.331Z,34.00
2018-04-19T06:43:14.534Z,29.83
2018-04-19T06:45:41.984Z,24.53
2018-04-19T06:48:09.426Z,32.40
2018-04-19T06:50:36.878Z,23.20
2018-04-19T06:53:04.319Z,26.37
2018-04-19T06:55:31.771Z,24.73
2018-04-19T06:57:59.215Z,36.23
2018-04-19T07:00:26.662Z,23.00
2018-04-19T07:02:54.106Z,27.70
2018-04-19T07:05:21.558Z,27.73
2018-04-19T07:07:48.998Z,24.97
2018-04-19T07:10:16.448Z,24.43
2018-04-19T07:12:43.896Z,27.07
2018-04-19T07:15:12.102Z,22.73
2018-04-19T07:17:39.550Z,27.50
2018-04-19T07:20:06.995Z,27.90
2018-04-19T07:22:34.436Z,23.23
2018-04-19T07:25:01.877Z,18.83
2018-04-19T07:27:29.322Z,23.63
2018-04-19T07:29:56.779Z,23.93
2018-04-19T07:32:24.992Z,19.47
2018-04-19T07:34:52.431Z,20.30
2018-04-19T07:37:19.878Z,32.20
2018-04-19T07:39:47.313Z,21.20
2018-04-19T07:42:15.539Z,20.97
2018-04-19T07:44:42.983Z,17.70
2018-04-19T07:47:10.426Z,17.40
2018-04-19T07:49:37.871Z,18.07
2018-04-19T07:52:05.323Z,18.43
2018-04-19T07:54:32.779Z,23.90
2018-04-19T07:57:00.221Z,19.73
2018-04-19T07:59:27.667Z,21.50
2018-04-19T08:01:55.882Z,25.70
2018-04-19T08:04:23.323Z,18.87
2018-04-19T08:06:50.775Z,27.33
2018-04-19T08:09:18.215Z,18.47
2018-04-19T08:11:46.432Z,32.97
2018-04-19T08:14:13.875Z,16.60
2018-04-19T08:16:41.322Z,18.30
2018-04-19T08:19:08.772Z,17.47
2018-04-19T08:21:36.982Z,24.30
2018-04-19T08:24:04.418Z,20.30
2018-04-19T08:26:31.865Z,17.40
2018-04-19T08:28:59.303Z,14.90
2018-04-19T08:31:27.523Z,25.67
2018-04-19T08:33:54.963Z,15.07
2018-04-19T08:36:22.411Z,19.57
2018-04-19T08:38:49.851Z,20.40
2018-04-19T08:41:17.307Z,16.97
2018-04-19T08:43:44.759Z,25.33
2018-04-19T08:46:12.215Z,16.90
2018-04-19T08:48:39.684Z,17.83
2018-04-19T08:51:07.128Z,15.50
2018-04-19T08:53:34.567Z,18.77
2018-04-19T08:56:02.015Z,20.57
2018-04-19T08:58:29.459Z,21.93
2018-04-19T09:00:56.901Z,22.63
2018-04-19T09:03:24.345Z,21.03
2018-04-19T09:05:52.567Z,26.17
2018-04-19T09:08:20.019Z,19.23
2018-04-19T09:10:48.235Z,16.90
2018-04-19T09:13:15.685Z,23.40
2018-04-19T09:15:43.125Z,24.00
2018-04-19T09:18:10.572Z,21.60
2018-04-19T09:20:38.789Z,16.63
2018-04-19T09:23:06.307Z,18.20
2018-04-19T09:25:33.686Z,22.07
2018-04-19T09:28:01.142Z,19.43
2018-04-19T09:30:28.582Z,16.60
2018-04-19T09:32:56.799Z,16.63
2018-04-19T09:35:24.246Z,15.57
2018-04-19T09:37:51.695Z,14.40
2018-04-19T09:40:19.146Z,19.13
2018-04-19T09:42:47.355Z,26.00
2018-04-19T09:45:14.807Z,15.77
2018-04-19T09:47:43.022Z,17.37
2018-04-19T09:50:10.463Z,21.30
2018-04-19T09:52:37.901Z,21.13
2018-04-19T09:55:05.342Z,32.83
2018-04-19T09:57:33.562Z,23.00
2018-04-19T10:00:01.010Z,14.50
2018-04-19T10:02:28.448Z,15.00
2018-04-19T10:05:02.501Z,16.77
2018-04-19T10:07:29.938Z,19.80
2018-04-19T10:09:57.385Z,17.90
2018-04-19T10:12:24.842Z,15.97
2018-04-19T10:14:52.278Z,17.27
2018-04-19T10:17:20.494Z,19.63
2018-04-19T10:19:47.934Z,16.13
2018-04-19T10:22:15.382Z,21.63
2018-04-19T10:24:42.827Z,22.33
2018-04-19T10:27:10.278Z,20.50
2018-04-19T10:29:37.715Z,19.63
2018-04-19T10:32:05.164Z,17.47
2018-04-19T10:34:32.606Z,20.60
2018-04-19T10:37:00.046Z,19.50
2018-04-19T10:39:27.488Z,22.10
2018-04-19T10:41:55.705Z,19.20
2018-04-19T10:44:23.907Z,20.30
2018-04-19T10:46:51.364Z,16.37
2018-04-19T10:49:18.802Z,16.07
2018-04-19T10:51:46.251Z,16.70
2018-04-19T10:54:14.445Z,10.17
2018-04-19T10:56:41.894Z,11.57
2018-04-19T10:59:09.332Z,14.57
2018-04-19T11:01:36.765Z,16.33
2018-04-19T11:04:04.967Z,10.27
2018-04-19T11:06:33.184Z,11.83
2018-04-19T11:09:00.628Z,12.60
2018-04-19T11:11:28.065Z,12.13
2018-04-19T11:13:55.506Z,15.23
2018-04-19T11:16:23.731Z,16.87
2018-04-19T11:18:51.171Z,13.83
2018-04-19T11:21:18.619Z,19.03
2018-04-19T11:23:46.071Z,11.97
2018-04-19T11:26:13.511Z,11.30
2018-04-19T11:28:40.950Z,13.27
2018-04-19T11:31:08.403Z,15.67
2018-04-19T11:33:36.602Z,15.97
2018-04-19T11:36:04.813Z,15.80
2018-04-19T11:38:32.260Z,18.20
2018-04-19T11:40:59.689Z,19.27
2018-04-19T11:43:27.137Z,11.90
2018-04-19T11:45:55.353Z,17.97
2018-04-19T11:48:23.550Z,11.90
2018-04-19T11:50:50.991Z,17.33
2018-04-19T11:53:18.430Z,19.40
2018-04-19T11:55:45.874Z,17.50
2018-04-19T11:58:14.079Z,13.60
2018-04-19T12:00:42.277Z,12.43
2018-04-19T12:03:10.488Z,14.27
2018-04-19T12:05:37.926Z,12.10
2018-04-19T12:08:05.380Z,17.10
2018-04-19T12:10:32.819Z,16.40
2018-04-19T12:13:01.031Z,14.47
2018-04-19T12:15:28.474Z,37.73
2018-04-19T12:17:55.921Z,15.63
2018-04-19T12:20:23.359Z,16.93
2018-04-19T12:22:51.590Z,17.57
2018-04-19T12:25:19.029Z,14.03
2018-04-19T12:27:46.462Z,12.63
2018-04-19T12:30:13.914Z,15.30
2018-04-19T12:32:41.345Z,13.30
2018-04-19T12:35:14.491Z,11.60
2018-04-19T12:37:42.833Z,11.40
2018-04-19T12:40:10.917Z,12.57
2018-04-19T12:42:38.354Z,15.13
2018-04-19T12:45:05.794Z,18.53
2018-04-19T12:47:33.239Z,24.00
2018-04-19T12:50:01.451Z,11.17
2018-04-19T12:52:28.890Z,14.80
2018-04-19T12:54:56.338Z,17.60
2018-04-19T12:57:23.780Z,20.33
2018-04-19T12:59:52.235Z,23.07
2018-04-19T13:02:19.673Z,13.17
2018-04-19T13:04:47.119Z,8.40
2018-04-19T13:07:14.559Z,10.60
2018-04-19T13:09:42.001Z,11.53
2018-04-19T13:12:10.207Z,13.90
2018-04-19T13:14:38.419Z,41.30
2018-04-19T13:17:05.858Z,10.37
2018-04-19T13:19:33.311Z,12.13
2018-04-19T13:22:00.759Z,7.70
2018-04-19T13:24:28.204Z,20.83
2018-04-19T13:26:55.642Z,12.47
2018-04-19T13:29:23.090Z,14.47
2018-04-19T13:31:51.298Z,23.47
2018-04-19T13:34:18.734Z,9.50
2018-04-19T13:36:46.187Z,13.83
2018-04-19T13:39:13.617Z,13.57
2018-04-19T13:41:41.830Z,18.60
2018-04-19T13:44:10.043Z,11.70
2018-04-19T13:46:37.498Z,10.10
2018-04-19T13:49:05.695Z,8.10
2018-04-19T13:51:33.908Z,9.30
2018-04-19T13:54:01.351Z,13.27
2018-04-19T13:56:28.795Z,7.83
2018-04-19T13:58:56.235Z,11.90
2018-04-19T14:01:24.447Z,7.30
2018-04-19T14:03:52.655Z,21.97
2018-04-19T14:06:20.104Z,22.53
2018-04-19T14:08:47.534Z,12.50
2018-04-19T14:11:14.975Z,9.33
2018-04-19T14:13:43.170Z,8.83
2018-04-19T14:16:10.615Z,7.53
2018-04-19T14:18:38.047Z,7.10
2018-04-19T14:21:06.263Z,9.10
2018-04-19T14:23:33.699Z,6.87
2018-04-19T14:26:01.142Z,6.20
2018-04-19T14:28:28.583Z,9.40
2018-04-19T14:30:56.786Z,9.27
2018-04-19T14:33:24.982Z,9.67
2018-04-19T14:35:53.195Z,7.73
2018-04-19T14:38:20.654Z,16.07
2018-04-19T14:40:48.066Z,7.93
2018-04-19T14:43:15.506Z,8.37
2018-04-19T14:45:42.934Z,6.43
2018-04-19T14:48:10.369Z,6.00
2018-04-19T14:50:37.806Z,7.93
2018-04-19T14:53:05.247Z,7.00
2018-04-19T14:55:33.490Z,7.50
2018-04-19T14:58:00.882Z,13.50
2018-04-19T15:00:28.330Z,18.87
2018-04-19T15:02:55.770Z,9.30
2018-04-19T15:05:23.983Z,16.10
2018-04-19T15:07:52.192Z,9.00
2018-04-19T15:10:19.640Z,6.63
2018-04-19T15:12:47.066Z,13.17
2018-04-19T15:15:14.506Z,7.53
2018-04-19T15:17:41.938Z,9.27
2018-04-19T15:20:09.387Z,8.50
2018-04-19T15:22:37.595Z,8.70
2018-04-19T15:25:05.039Z,10.17
2018-04-19T15:27:32.486Z,13.70
2018-04-19T15:29:59.915Z,4.20
2018-04-19T15:32:28.130Z,5.20
2018-04-19T15:34:55.563Z,6.30
2018-04-19T15:37:23.012Z,4.80
2018-04-19T15:39:50.447Z,9.90
2018-04-19T15:42:17.886Z,9.23
2018-04-19T15:44:45.319Z,9.43
2018-04-19T15:47:13.530Z,8.63
2018-04-19T15:49:41.727Z,6.73
2018-04-19T15:52:09.947Z,4.90
2018-04-19T15:54:37.386Z,28.97
2018-04-19T15:57:05.611Z,12.87
2018-04-19T15:59:33.054Z,12.47
2018-04-19T16:02:00.517Z,8.27
2018-04-19T16:04:27.917Z,11.83
2018-04-19T16:06:55.369Z,12.60
2018-04-19T16:09:22.806Z,8.43
2018-04-19T16:11:53.081Z,5.33
2018-04-19T16:14:18.452Z,5.40
2018-04-19T16:16:45.890Z,5.10
2018-04-19T16:19:13.318Z,6.40
2018-04-19T16:21:40.763Z,6.80
2018-04-19T16:24:08.203Z,11.70
2018-04-19T16:26:36.416Z,4.53
2018-04-19T16:29:03.879Z,13.23
2018-04-19T16:31:32.086Z,8.80
2018-04-19T16:34:00.283Z,4.40
2018-04-19T16:36:28.497Z,20.53
2018-04-19T16:38:55.925Z,10.00
2018-04-19T16:41:23.372Z,13.93
2018-04-19T16:43:50.807Z,9.00
2018-04-19T16:46:18.246Z,7.33
2018-04-19T16:48:45.686Z,12.93
2018-04-19T16:51:13.895Z,6.50
2018-04-19T16:53:41.330Z,3.13
2018-04-19T16:56:08.770Z,8.30
2018-04-19T16:58:36.206Z,7.30
2018-04-19T17:01:04.410Z,5.33
2018-04-19T17:03:32.615Z,11.43
2018-04-19T17:06:00.862Z,4.50
2018-04-19T17:08:29.023Z,7.27
2018-04-19T17:10:56.510Z,10.17
2018-04-19T17:13:23.949Z,3.47
2018-04-19T17:15:51.381Z,7.67
2018-04-19T17:18:18.819Z,5.07
2018-04-19T17:20:46.267Z,5.47
2018-04-19T17:23:13.698Z,7.93
2018-04-19T17:25:41.905Z,4.70
2018-04-19T17:28:10.103Z,4.60
2018-04-19T17:30:38.298Z,3.17
2018-04-19T17:33:06.502Z,6.70
2018-04-19T17:35:33.934Z,7.67
2018-04-19T17:38:01.374Z,13.90
2018-04-19T17:40:28.836Z,6.93
2018-04-19T17:42:56.262Z,3.90
2018-04-19T17:45:23.693Z,6.90
2018-04-19T17:47:51.907Z,5.20
2018-04-19T17:50:20.107Z,6.20
2018-04-19T17:52:47.561Z,4.40
2018-04-19T17:55:14.991Z,9.00
2018-04-19T17:57:42.547Z,10.23
2018-04-19T18:00:10.730Z,4.50
2018-04-19T18:02:38.943Z,5.57
2018-04-19T18:05:07.147Z,3.43
2018-04-19T18:07:34.581Z,6.00
2018-04-19T18:10:02.014Z,5.80
2018-04-19T18:12:29.453Z,4.70
2018-04-19T18:14:56.881Z,3.10
2018-04-19T18:17:24.325Z,9.10
2018-04-19T18:19:51.759Z,2.73
2018-04-19T18:22:19.197Z,6.33
2018-04-19T18:24:47.400Z,2.20
2018-04-19T18:27:15.598Z,2.90
2018-04-19T18:29:43.793Z,9.10
2018-04-19T18:32:12.003Z,4.47
2018-04-19T18:34:39.434Z,2.80
2018-04-19T18:37:06.878Z,4.07
2018-04-19T18:39:34.311Z,6.83
2018-04-19T18:42:01.746Z,2.70
2018-04-19T18:44:29.177Z,2.83
2018-04-19T18:46:56.683Z,2.57
2018-04-19T18:49:24.874Z,7.80
2018-04-19T18:51:53.087Z,3.43
2018-04-19T18:54:20.524Z,2.50
2018-04-19T18:56:47.967Z,7.60
2018-04-19T18:59:15.406Z,2.40
2018-04-19T19:01:42.858Z,2.23
2018-04-19T19:04:10.289Z,6.60
2018-04-19T19:06:37.722Z,4.03
2018-04-19T19:09:06.017Z,8.63
2018-04-19T19:11:33.448Z,8.37
2018-04-19T19:14:01.655Z,18.23
2018-04-19T19:16:29.090Z,17.27
2018-04-19T19:19:08.463Z,12.57
2018-04-19T19:21:35.907Z,19.83
2018-04-19T19:24:03.418Z,17.20
2018-04-19T19:26:30.794Z,14.73
2018-04-19T19:28:58.235Z,6.50
2018-04-19T19:31:25.672Z,8.87
2018-04-19T19:33:53.113Z,13.50
2018-04-19T19:36:20.545Z,2.63
2018-04-19T19:38:49.585Z,26.13
2018-04-19T19:41:17.010Z,8.63
2018-04-19T19:43:44.454Z,33.60
2018-04-19T19:46:11.888Z,14.37
2018-04-19T19:48:39.341Z,14.50
2018-04-19T19:51:06.775Z,10.70
2018-04-19T19:53:34.214Z,16.87
2018-04-19T19:56:01.646Z,4.10
2018-04-19T19:58:29.095Z,9.63
2018-04-19T20:00:56.534Z,3.70
2018-04-19T20:03:23.975Z,4.37
2018-04-19T20:05:52.170Z,2.83
2018-04-19T20:08:20.384Z,3.77
2018-04-19T20:10:47.815Z,12.23
2018-04-19T20:13:15.259Z,2.53
2018-04-19T20:15:42.689Z,4.23
2018-04-19T20:18:10.134Z,6.30
2018-04-19T20:20:37.574Z,4.77
2018-04-19T20:23:05.779Z,3.00
2018-04-19T20:25:33.213Z,18.90
2018-04-19T20:28:00.656Z,5.13
2018-04-19T20:30:28.086Z,4.00
2018-04-19T20:32:55.532Z,6.30
2018-04-19T20:35:22.967Z,7.13
2018-04-19T20:37:51.179Z,6.17
2018-04-19T20:40:19.374Z,3.80
2018-04-19T20:42:47.581Z,3.60
2018-04-19T20:45:15.014Z,5.80
2018-04-19T20:47:42.540Z,5.90
2018-04-19T20:50:10.737Z,6.30
2018-04-19T20:52:38.946Z,6.07
2018-04-19T20:55:06.369Z,7.87
2018-04-19T20:57:33.806Z,11.03
2018-04-19T21:00:01.258Z,4.20
2018-04-19T21:02:28.686Z,7.13
2018-04-19T21:04:56.135Z,6.77
2018-04-19T21:07:24.339Z,3.80
2018-04-19T21:09:52.550Z,3.07
2018-04-19T21:12:19.989Z,10.87
2018-04-19T21:14:47.434Z,8.17
2018-04-19T21:17:14.875Z,17.07
2018-04-19T21:19:43.083Z,4.50
2018-04-19T21:22:10.514Z,3.17
2018-04-19T21:24:37.954Z,7.30
2018-04-19T21:27:05.389Z,3.37
2018-04-19T21:29:32.834Z,7.10
2018-04-19T21:32:00.279Z,3.77
2018-04-19T21:34:28.479Z,3.13
2018-04-19T21:36:55.918Z,4.87
2018-04-19T21:39:23.362Z,5.30
2018-04-19T21:41:50.806Z,12.07
2018-04-19T21:44:19.010Z,3.63
2018-04-19T21:46:47.215Z,11.10
2018-04-19T21:49:15.417Z,3.90
2018-04-19T21:51:43.618Z,7.03
2018-04-19T21:54:11.839Z,6.10
2018-04-19T21:56:39.279Z,4.10
2018-04-19T21:59:06.709Z,7.13
2018-04-19T22:01:34.142Z,7.73
2018-04-19T22:04:02.345Z,3.37
2018-04-19T22:06:30.557Z,4.00
2018-04-19T22:08:58.768Z,4.50
2018-04-19T22:11:26.199Z,5.83
2018-04-19T22:13:53.653Z,2.73
2018-04-19T22:16:21.094Z,4.20
2018-04-19T22:18:49.301Z,6.83
2018-04-19T22:21:16.731Z,3.60
2018-04-19T22:23:44.173Z,4.93
2018-04-19T22:26:11.608Z,3.10
2018-04-19T22:28:39.051Z,9.07
2018-04-19T22:31:06.495Z,8.60
2018-04-19T22:33:34.694Z,3.13
2018-04-19T22:36:02.133Z,3.40
2018-04-19T22:38:29.570Z,3.67
2018-04-19T22:40:57.002Z,3.70
2018-04-19T22:43:24.455Z,14.47
2018-04-19T22:45:51.886Z,3.47
2018-04-19T22:48:20.103Z,7.20
2018-04-19T22:50:47.534Z,11.60
2018-04-19T22:53:14.970Z,5.87
2018-04-19T22:55:42.417Z,3.30
2018-04-19T22:58:09.850Z,4.10
2018-04-19T23:00:37.289Z,10.87
2018-04-19T23:03:05.498Z,4.50
2018-04-19T23:05:32.944Z,6.27
2018-04-19T23:08:00.375Z,6.83
2018-04-19T23:10:27.823Z,8.13
2018-04-19T23:12:56.017Z,3.20
2018-04-19T23:15:24.223Z,4.03
2018-04-19T23:17:52.418Z,5.20
2018-04-19T23:20:20.626Z,3.53
2018-04-19T23:22:48.824Z,5.83
2018-04-19T23:25:17.024Z,6.63
2018-04-19T23:27:45.231Z,11.37
2018-04-19T23:30:12.674Z,4.87
2018-04-19T23:32:40.117Z,4.30
2018-04-19T23:35:07.550Z,7.50
2018-04-19T23:37:36.547Z,3.20
2018-04-19T23:40:03.960Z,3.30
2018-04-19T23:42:32.167Z,3.67
2018-04-19T23:44:59.615Z,9.00
2018-04-19T23:47:27.042Z,4.30
2018-04-19T23:49:54.490Z,5.97
2018-04-19T23:52:22.693Z,7.07
2018-04-19T23:54:50.901Z,3.30
2018-04-19T23:57:19.100Z,4.40
2018-04-19T23:59:47.307Z,8.23
